createdAt,value
2022-09-12T00:00:14.419Z,61.87
2022-09-12T00:01:14.480Z,59.30
2022-09-12T00:02:14.437Z,63.33
2022-09-12T00:03:14.395Z,56.72
2022-09-12T00:04:14.391Z,60.26
2022-09-12T00:05:14.385Z,59.62
2022-09-12T00:06:14.365Z,59.78
2022-09-12T00:07:14.364Z,58.65
2022-09-12T00:08:14.351Z,61.87
2022-09-12T00:09:14.340Z,58.65
2022-09-12T00:10:14.347Z,55.91
2022-09-12T00:11:14.347Z,59.78
2022-09-12T00:12:14.343Z,60.26
2022-09-12T00:13:14.319Z,57.04
2022-09-12T00:14:14.309Z,55.27
2022-09-12T00:15:14.307Z,57.20
2022-09-12T00:16:14.364Z,56.40
2022-09-12T00:17:14.306Z,58.33
2022-09-12T00:18:14.282Z,59.14
2022-09-12T00:19:14.263Z,58.33
2022-09-12T00:20:14.251Z,58.81
2022-09-12T00:21:14.242Z,63.65
2022-09-12T00:22:14.247Z,64.45
2022-09-12T00:23:14.249Z,57.69
2022-09-12T00:24:14.239Z,56.07
2022-09-12T00:25:14.221Z,58.81
2022-09-12T00:26:14.216Z,60.42
2022-09-12T00:27:14.196Z,59.30
2022-09-12T00:28:14.197Z,59.14
2022-09-12T00:29:14.200Z,58.17
2022-09-12T00:30:14.181Z,55.43
2022-09-12T00:31:14.236Z,60.75
2022-09-12T00:32:14.161Z,63.65
2022-09-12T00:33:14.155Z,58.01
2022-09-12T00:34:14.142Z,60.10
2022-09-12T00:35:14.218Z,60.10
2022-09-12T00:36:14.131Z,59.62
2022-09-12T00:37:14.124Z,59.78
2022-09-12T00:38:14.110Z,59.94
2022-09-12T00:39:14.112Z,59.78
2022-09-12T00:40:14.138Z,59.30
2022-09-12T00:41:14.118Z,60.26
2022-09-12T00:42:14.085Z,59.94
2022-09-12T00:43:14.066Z,58.97
2022-09-12T00:44:14.057Z,57.85
2022-09-12T00:45:14.048Z,59.78
2022-09-12T00:46:14.044Z,59.78
2022-09-12T00:47:14.062Z,59.30
2022-09-12T00:48:14.036Z,58.65
2022-09-12T00:49:14.018Z,58.65
2022-09-12T00:50:14.018Z,60.26
2022-09-12T00:51:14.005Z,58.17
2022-09-12T00:52:13.997Z,60.75
2022-09-12T00:53:14.005Z,60.10
2022-09-12T00:54:13.987Z,59.94
2022-09-12T00:55:13.977Z,60.75
2022-09-12T00:56:13.973Z,58.01
2022-09-12T00:57:13.964Z,60.10
2022-09-12T00:58:13.954Z,59.94
2022-09-12T00:59:13.960Z,61.23
2022-09-12T01:00:13.951Z,61.23
2022-09-12T01:01:14.053Z,60.42
2022-09-12T01:02:13.975Z,59.94
2022-09-12T01:03:13.909Z,61.55
2022-09-12T01:04:13.931Z,60.59
2022-09-12T01:05:13.900Z,60.26
2022-09-12T01:06:13.889Z,61.23
2022-09-12T01:07:13.884Z,64.78
2022-09-12T01:08:13.872Z,60.59
2022-09-12T01:09:13.862Z,60.59
2022-09-12T01:10:13.885Z,62.52
2022-09-12T01:11:13.849Z,63.97
2022-09-12T01:12:13.847Z,59.46
2022-09-12T01:13:13.832Z,62.36
2022-09-12T01:14:13.827Z,63.97
2022-09-12T01:15:13.826Z,60.59
2022-09-12T01:16:13.854Z,59.94
2022-09-12T01:17:13.791Z,60.59
2022-09-12T01:18:13.804Z,61.87
2022-09-12T01:19:13.798Z,60.59
2022-09-12T01:20:13.785Z,63.16
2022-09-12T01:21:13.774Z,64.94
2022-09-12T01:22:13.786Z,63.00
2022-09-12T01:23:13.751Z,63.97
2022-09-12T01:24:13.744Z,61.71
2022-09-12T01:25:13.739Z,66.55
2022-09-12T01:26:13.727Z,64.45
2022-09-12T01:27:13.722Z,62.36
2022-09-12T01:28:13.738Z,60.42
2022-09-12T01:29:13.701Z,60.10
2022-09-12T01:30:13.702Z,61.23
2022-09-12T01:31:13.706Z,61.39
2022-09-12T01:32:13.710Z,63.97
2022-09-12T01:33:13.669Z,62.68
2022-09-12T01:34:13.665Z,64.94
2022-09-12T01:35:13.658Z,64.94
2022-09-12T01:36:13.650Z,64.78
2022-09-12T01:37:13.666Z,63.49
2022-09-12T01:38:13.642Z,60.26
2022-09-12T01:39:13.632Z,59.94
2022-09-12T01:40:13.652Z,59.94
2022-09-12T01:41:13.617Z,58.49
2022-09-12T01:42:13.607Z,62.52
2022-09-12T01:43:13.614Z,59.62
2022-09-12T01:44:13.620Z,59.14
2022-09-12T01:45:13.591Z,62.52
2022-09-12T01:46:13.586Z,62.36
2022-09-12T01:47:13.569Z,64.13
2022-09-12T01:48:13.569Z,61.39
2022-09-12T01:49:13.556Z,61.23
2022-09-12T01:50:13.571Z,62.20
2022-09-12T01:51:13.540Z,63.00
2022-09-12T01:52:13.537Z,63.16
2022-09-12T01:53:13.547Z,62.36
2022-09-12T01:54:13.519Z,61.39
2022-09-12T01:55:13.508Z,60.26
2022-09-12T01:56:13.501Z,67.03
2022-09-12T01:57:13.490Z,64.29
2022-09-12T01:58:13.488Z,62.36
2022-09-12T01:59:13.490Z,63.49
2022-09-12T02:00:13.470Z,64.45
2022-09-12T02:01:13.487Z,59.30
2022-09-12T02:02:13.502Z,61.39
2022-09-12T02:03:13.448Z,59.78
2022-09-12T02:04:13.444Z,60.75
2022-09-12T02:05:13.439Z,59.78
2022-09-12T02:06:13.439Z,62.52
2022-09-12T02:07:13.436Z,63.33
2022-09-12T02:08:13.411Z,60.26
2022-09-12T02:09:13.390Z,59.62
2022-09-12T02:10:13.393Z,60.75
2022-09-12T02:11:13.389Z,60.59
2022-09-12T02:12:13.399Z,59.94
2022-09-12T02:13:13.364Z,60.26
2022-09-12T02:14:13.365Z,61.23
2022-09-12T02:15:13.374Z,61.55
2022-09-12T02:16:13.410Z,61.23
2022-09-12T02:17:13.337Z,57.85
2022-09-12T02:18:13.331Z,59.14
2022-09-12T02:19:13.318Z,62.52
2022-09-12T02:20:21.364Z,63.16
2022-09-12T02:21:14.305Z,58.81
2022-09-12T02:22:13.295Z,62.84
2022-09-12T02:23:13.291Z,62.68
2022-09-12T02:24:13.301Z,61.71
2022-09-12T02:25:13.269Z,58.49
2022-09-12T02:26:13.262Z,60.10
2022-09-12T02:27:13.255Z,58.97
2022-09-12T02:28:13.249Z,60.26
2022-09-12T02:29:13.259Z,58.65
2022-09-12T02:30:13.234Z,62.52
2022-09-12T02:31:13.240Z,63.97
2022-09-12T02:32:13.215Z,60.91
2022-09-12T02:33:13.240Z,61.55
2022-09-12T02:34:13.210Z,61.23
2022-09-12T02:35:13.195Z,58.65
2022-09-12T02:36:13.189Z,60.26
2022-09-12T02:37:13.202Z,60.75
2022-09-12T02:38:13.172Z,62.52
2022-09-12T02:39:13.169Z,58.81
2022-09-12T02:40:13.209Z,61.71
2022-09-12T02:41:13.149Z,60.59
2022-09-12T02:42:13.146Z,60.42
2022-09-12T02:43:13.148Z,61.07
2022-09-12T02:44:13.122Z,63.33
2022-09-12T02:45:13.116Z,60.10
2022-09-12T02:46:13.102Z,60.10
2022-09-12T02:47:13.091Z,63.65
2022-09-12T02:48:13.631Z,62.36
2022-09-12T02:49:13.087Z,60.75
2022-09-12T02:50:13.084Z,60.91
2022-09-12T02:51:13.071Z,61.07
2022-09-12T02:52:13.090Z,63.33
2022-09-12T02:53:13.052Z,60.42
2022-09-12T02:54:13.041Z,63.00
2022-09-12T02:55:13.037Z,62.52
2022-09-12T02:56:13.030Z,63.00
2022-09-12T02:57:13.029Z,62.52
2022-09-12T02:58:13.033Z,60.26
2022-09-12T02:59:13.024Z,62.68
2022-09-12T03:00:13.024Z,59.62
2022-09-12T03:01:12.999Z,62.04
2022-09-12T03:02:13.042Z,63.16
2022-09-12T03:03:12.983Z,62.52
2022-09-12T03:04:12.974Z,61.55
2022-09-12T03:05:12.998Z,62.52
2022-09-12T03:06:12.969Z,62.52
2022-09-12T03:07:12.956Z,62.68
2022-09-12T03:08:12.956Z,62.20
2022-09-12T03:09:12.935Z,63.00
2022-09-12T03:10:12.931Z,62.68
2022-09-12T03:11:12.943Z,62.84
2022-09-12T03:12:12.919Z,65.10
2022-09-12T03:13:12.931Z,59.94
2022-09-12T03:14:12.908Z,62.20
2022-09-12T03:15:12.899Z,60.91
2022-09-12T03:16:12.970Z,63.33
2022-09-12T03:17:12.880Z,62.52
2022-09-12T03:18:12.871Z,63.49
2022-09-12T03:19:12.869Z,61.71
2022-09-12T03:20:12.883Z,62.36
2022-09-12T03:21:12.849Z,62.20
2022-09-12T03:22:12.846Z,63.81
2022-09-12T03:23:12.836Z,63.65
2022-09-12T03:24:12.858Z,62.04
2022-09-12T03:25:12.816Z,62.68
2022-09-12T03:26:12.811Z,62.04
2022-09-12T03:27:12.809Z,60.75
2022-09-12T03:28:12.807Z,62.36
2022-09-12T03:29:12.808Z,62.84
2022-09-12T03:30:19.814Z,62.68
2022-09-12T03:31:12.773Z,63.65
2022-09-12T03:32:12.767Z,63.33
2022-09-12T03:33:12.768Z,62.04
2022-09-12T03:34:12.785Z,60.10
2022-09-12T03:35:12.743Z,63.49
2022-09-12T03:36:12.743Z,64.78
2022-09-12T03:37:12.730Z,63.97
2022-09-12T03:38:12.728Z,64.13
2022-09-12T03:39:12.714Z,63.97
2022-09-12T03:40:12.778Z,62.52
2022-09-12T03:41:12.719Z,63.49
2022-09-12T03:42:12.698Z,62.36
2022-09-12T03:43:12.696Z,62.68
2022-09-12T03:44:12.671Z,63.65
2022-09-12T03:45:12.669Z,60.42
2022-09-12T03:46:12.661Z,61.71
2022-09-12T03:47:12.670Z,62.84
2022-09-12T03:48:12.648Z,61.71
2022-09-12T03:49:12.657Z,61.87
2022-09-12T03:50:12.635Z,63.33
2022-09-12T03:51:12.647Z,62.84
2022-09-12T03:52:12.624Z,64.13
2022-09-12T03:53:16.930Z,63.16
2022-09-12T03:54:12.604Z,62.68
2022-09-12T03:55:12.596Z,64.45
2022-09-12T03:56:12.592Z,62.20
2022-09-12T03:57:12.601Z,60.10
2022-09-12T03:58:12.573Z,64.13
2022-09-12T03:59:12.561Z,63.33
2022-09-12T04:00:16.395Z,64.61
2022-09-12T04:01:12.678Z,63.81
2022-09-12T04:02:12.586Z,62.84
2022-09-12T04:03:12.531Z,63.16
2022-09-12T04:04:12.525Z,62.84
2022-09-12T04:05:12.544Z,63.16
2022-09-12T04:06:12.511Z,63.33
2022-09-12T04:07:12.498Z,64.13
2022-09-12T04:08:12.502Z,62.36
2022-09-12T04:09:12.489Z,63.16
2022-09-12T04:10:12.483Z,64.13
2022-09-12T04:11:12.483Z,63.00
2022-09-12T04:12:12.470Z,65.26
2022-09-12T04:13:12.458Z,64.45
2022-09-12T04:14:12.455Z,69.77
2022-09-12T04:15:12.456Z,62.52
2022-09-12T04:16:12.520Z,66.39
2022-09-12T04:17:12.451Z,64.45
2022-09-12T04:18:12.424Z,60.10
2022-09-12T04:19:12.418Z,64.78
2022-09-12T04:20:12.409Z,63.00
2022-09-12T04:21:12.395Z,61.55
2022-09-12T04:22:12.408Z,64.29
2022-09-12T04:23:12.386Z,64.13
2022-09-12T04:24:12.395Z,63.65
2022-09-12T04:25:12.364Z,62.84
2022-09-12T04:26:12.358Z,64.94
2022-09-12T04:27:12.383Z,64.94
2022-09-12T04:28:12.349Z,64.13
2022-09-12T04:29:12.342Z,63.33
2022-09-12T04:30:12.342Z,64.61
2022-09-12T04:31:12.327Z,64.13
2022-09-12T04:32:12.316Z,63.97
2022-09-12T04:33:12.333Z,62.52
2022-09-12T04:34:12.305Z,63.81
2022-09-12T04:35:12.292Z,62.84
2022-09-12T04:36:12.315Z,62.68
2022-09-12T04:37:12.283Z,62.52
2022-09-12T04:38:12.269Z,62.68
2022-09-12T04:39:12.258Z,61.87
2022-09-12T04:40:12.279Z,64.29
2022-09-12T04:41:12.253Z,60.75
2022-09-12T04:42:12.266Z,64.13
2022-09-12T04:43:14.486Z,61.87
2022-09-12T04:44:12.239Z,61.07
2022-09-12T04:45:12.223Z,63.81
2022-09-12T04:46:12.283Z,64.94
2022-09-12T04:47:12.215Z,63.81
2022-09-12T04:48:12.199Z,63.00
2022-09-12T04:49:12.190Z,63.16
2022-09-12T04:50:12.179Z,62.20
2022-09-12T04:51:12.175Z,63.33
2022-09-12T04:52:12.182Z,66.55
2022-09-12T04:53:12.165Z,64.13
2022-09-12T04:54:12.165Z,63.97
2022-09-12T04:55:12.142Z,64.78
2022-09-12T04:56:12.142Z,63.97
2022-09-12T04:57:12.154Z,64.45
2022-09-12T04:58:12.125Z,63.81
2022-09-12T04:59:12.123Z,63.97
2022-09-12T05:00:12.109Z,64.13
2022-09-12T05:01:12.161Z,63.49
2022-09-12T05:02:12.142Z,64.13
2022-09-12T05:03:12.080Z,64.94
2022-09-12T05:04:12.080Z,63.97
2022-09-12T05:05:12.071Z,63.81
2022-09-12T05:06:12.067Z,63.81
2022-09-12T05:07:12.072Z,64.45
2022-09-12T05:08:12.041Z,63.00
2022-09-12T05:09:12.038Z,65.26
2022-09-12T05:10:12.021Z,64.29
2022-09-12T05:11:12.037Z,65.74
2022-09-12T05:12:12.028Z,64.78
2022-09-12T05:13:12.002Z,64.45
2022-09-12T05:14:12.195Z,64.13
2022-09-12T05:15:11.987Z,64.13
2022-09-12T05:16:12.023Z,64.94
2022-09-12T05:17:11.962Z,64.13
2022-09-12T05:18:11.958Z,63.65
2022-09-12T05:19:11.941Z,63.00
2022-09-12T05:20:11.964Z,63.49
2022-09-12T05:21:11.930Z,64.29
2022-09-12T05:22:11.932Z,64.29
2022-09-12T05:23:11.911Z,63.16
2022-09-12T05:24:11.901Z,68.16
2022-09-12T05:25:11.900Z,64.13
2022-09-12T05:26:11.928Z,64.29
2022-09-12T05:27:11.903Z,64.45
2022-09-12T05:28:11.881Z,65.42
2022-09-12T05:29:11.866Z,64.13
2022-09-12T05:30:11.878Z,63.81
2022-09-12T05:31:11.847Z,63.97
2022-09-12T05:32:11.977Z,64.13
2022-09-12T05:33:11.846Z,64.45
2022-09-12T05:34:11.839Z,63.65
2022-09-12T05:35:11.833Z,64.29
2022-09-12T05:36:11.836Z,63.49
2022-09-12T05:37:11.798Z,65.26
2022-09-12T05:38:11.793Z,67.03
2022-09-12T05:39:11.828Z,65.58
2022-09-12T05:40:11.830Z,65.26
2022-09-12T05:41:16.951Z,65.26
2022-09-12T05:42:12.766Z,64.13
2022-09-12T05:43:11.783Z,64.78
2022-09-12T05:44:11.753Z,64.78
2022-09-12T05:45:11.739Z,63.97
2022-09-12T05:46:11.755Z,63.81
2022-09-12T05:47:11.715Z,64.13
2022-09-12T05:48:11.717Z,63.65
2022-09-12T05:49:11.722Z,64.13
2022-09-12T05:50:11.710Z,64.29
2022-09-12T05:51:11.679Z,64.45
2022-09-12T05:52:11.704Z,65.26
2022-09-12T05:53:11.672Z,65.74
2022-09-12T05:54:11.663Z,65.26
2022-09-12T05:55:11.681Z,64.61
2022-09-12T05:56:11.660Z,64.61
2022-09-12T05:57:11.641Z,64.94
2022-09-12T05:58:11.646Z,63.81
2022-09-12T05:59:11.618Z,63.81
2022-09-12T06:00:11.625Z,64.45
2022-09-12T06:01:11.690Z,62.84
2022-09-12T06:02:11.658Z,65.42
2022-09-12T06:03:11.598Z,64.45
2022-09-12T06:04:11.588Z,64.61
2022-09-12T06:05:11.613Z,65.58
2022-09-12T06:06:11.576Z,66.06
2022-09-12T06:07:11.580Z,65.90
2022-09-12T06:08:11.657Z,64.29
2022-09-12T06:09:11.626Z,64.29
2022-09-12T06:10:11.617Z,60.10
2022-09-12T06:11:11.621Z,64.13
2022-09-12T06:12:11.580Z,64.13
2022-09-12T06:13:11.560Z,63.97
2022-09-12T06:14:11.575Z,62.68
2022-09-12T06:15:11.529Z,63.97
2022-09-12T06:16:11.548Z,66.06
2022-09-12T06:17:11.516Z,63.65
2022-09-12T06:18:11.508Z,63.33
2022-09-12T06:19:11.509Z,65.74
2022-09-12T06:20:11.501Z,64.78
2022-09-12T06:21:11.500Z,64.45
2022-09-12T06:22:11.476Z,65.90
2022-09-12T06:23:11.456Z,63.33
2022-09-12T06:24:11.485Z,64.45
2022-09-12T06:25:11.484Z,64.13
2022-09-12T06:26:11.445Z,64.61
2022-09-12T06:27:11.437Z,63.81
2022-09-12T06:28:11.431Z,65.26
2022-09-12T06:29:11.422Z,63.49
2022-09-12T06:30:11.413Z,64.61
2022-09-12T06:31:11.482Z,63.81
2022-09-12T06:32:11.398Z,63.65
2022-09-12T06:33:11.384Z,64.45
2022-09-12T06:34:11.404Z,63.81
2022-09-12T06:35:11.375Z,65.42
2022-09-12T06:36:12.550Z,63.97
2022-09-12T06:37:11.382Z,63.65
2022-09-12T06:38:11.363Z,64.61
2022-09-12T06:39:11.346Z,62.84
2022-09-12T06:40:11.388Z,63.49
2022-09-12T06:41:11.352Z,63.81
2022-09-12T06:42:11.328Z,63.81
2022-09-12T06:43:11.341Z,64.13
2022-09-12T06:44:11.343Z,64.78
2022-09-12T06:45:11.323Z,65.74
2022-09-12T06:46:11.365Z,64.61
2022-09-12T06:47:11.299Z,64.45
2022-09-12T06:48:11.290Z,63.97
2022-09-12T06:49:11.301Z,64.29
2022-09-12T06:50:11.309Z,64.13
2022-09-12T06:51:11.281Z,64.13
2022-09-12T06:52:11.270Z,64.78
2022-09-12T06:53:11.287Z,63.65
2022-09-12T06:54:11.255Z,64.13
2022-09-12T06:55:11.242Z,64.13
2022-09-12T06:56:11.235Z,63.97
2022-09-12T06:57:11.226Z,64.61
2022-09-12T06:58:11.227Z,65.42
2022-09-12T06:59:11.244Z,63.81
2022-09-12T07:00:11.203Z,64.13
2022-09-12T07:01:11.242Z,63.81
2022-09-12T07:02:11.235Z,64.45
2022-09-12T07:03:11.187Z,64.13
2022-09-12T07:04:11.188Z,64.45
2022-09-12T07:05:11.179Z,64.29
2022-09-12T07:06:11.170Z,64.61
2022-09-12T07:07:11.157Z,64.29
2022-09-12T07:08:11.152Z,64.29
2022-09-12T07:09:11.160Z,64.45
2022-09-12T07:10:11.144Z,64.29
2022-09-12T07:11:11.123Z,65.58
2022-09-12T07:12:11.139Z,65.74
2022-09-12T07:13:11.110Z,64.61
2022-09-12T07:14:11.098Z,65.58
2022-09-12T07:15:11.107Z,65.58
2022-09-12T07:16:12.295Z,66.55
2022-09-12T07:17:11.172Z,62.84
2022-09-12T07:18:11.072Z,63.97
2022-09-12T07:19:11.074Z,64.78
2022-09-12T07:20:11.074Z,63.81
2022-09-12T07:21:11.046Z,64.94
2022-09-12T07:22:11.058Z,64.45
2022-09-12T07:23:11.033Z,63.97
2022-09-12T07:24:11.204Z,65.26
2022-09-12T07:25:11.029Z,65.26
2022-09-12T07:26:11.011Z,63.49
2022-09-12T07:27:11.017Z,64.45
2022-09-12T07:28:10.999Z,64.29
2022-09-12T07:29:36.602Z,64.45
2022-09-12T07:30:11.987Z,64.61
2022-09-12T07:31:11.034Z,63.49
2022-09-12T07:32:10.991Z,64.13
2022-09-12T07:33:10.951Z,65.26
2022-09-12T07:34:10.952Z,64.78
2022-09-12T07:35:10.953Z,64.45
2022-09-12T07:36:10.945Z,63.65
2022-09-12T07:37:10.950Z,64.45
2022-09-12T07:38:11.038Z,64.29
2022-09-12T07:39:10.906Z,65.10
2022-09-12T07:40:10.967Z,64.78
2022-09-12T07:41:10.896Z,65.10
2022-09-12T07:42:10.884Z,63.33
2022-09-12T07:43:10.880Z,64.13
2022-09-12T07:44:10.894Z,63.81
2022-09-12T07:45:10.869Z,63.81
2022-09-12T07:46:10.880Z,64.78
2022-09-12T07:47:10.848Z,64.13
2022-09-12T07:48:10.840Z,65.42
2022-09-12T07:49:10.827Z,64.13
2022-09-12T07:50:10.833Z,64.61
2022-09-12T07:51:10.827Z,65.58
2022-09-12T07:52:10.802Z,64.13
2022-09-12T07:53:10.797Z,64.13
2022-09-12T07:54:10.793Z,65.10
2022-09-12T07:55:10.799Z,64.45
2022-09-12T07:56:10.785Z,63.00
2022-09-12T07:57:10.754Z,64.13
2022-09-12T07:58:10.777Z,64.45
2022-09-12T07:59:10.766Z,65.58
2022-09-12T08:00:10.735Z,62.36
2022-09-12T08:01:10.763Z,64.61
2022-09-12T08:02:16.071Z,65.74
2022-09-12T08:03:11.733Z,65.42
2022-09-12T08:04:10.731Z,63.97
2022-09-12T08:05:10.705Z,63.49
2022-09-12T08:06:10.695Z,65.58
2022-09-12T08:07:10.695Z,60.75
2022-09-12T08:08:10.691Z,60.91
2022-09-12T08:09:10.678Z,65.26
2022-09-12T08:10:10.683Z,63.16
2022-09-12T08:11:10.658Z,63.81
2022-09-12T08:12:10.683Z,64.29
2022-09-12T08:13:10.960Z,63.33
2022-09-12T08:14:10.636Z,61.71
2022-09-12T08:15:10.621Z,60.42
2022-09-12T08:16:10.667Z,64.13
2022-09-12T08:17:10.616Z,62.36
2022-09-12T08:18:10.646Z,63.16
2022-09-12T08:19:10.591Z,61.87
2022-09-12T08:20:10.598Z,63.97
2022-09-12T08:21:10.582Z,62.36
2022-09-12T08:22:10.570Z,58.65
2022-09-12T08:23:10.559Z,63.65
2022-09-12T08:24:10.577Z,62.04
2022-09-12T08:25:10.536Z,64.45
2022-09-12T08:26:10.566Z,64.45
2022-09-12T08:27:10.532Z,62.68
2022-09-12T08:28:10.514Z,63.81
2022-09-12T08:29:10.530Z,62.68
2022-09-12T08:30:10.506Z,62.20
2022-09-12T08:31:10.547Z,63.49
2022-09-12T08:32:10.529Z,63.16
2022-09-12T08:33:10.482Z,64.13
2022-09-12T08:34:10.480Z,63.81
2022-09-12T08:35:10.490Z,65.90
2022-09-12T08:36:10.489Z,64.94
2022-09-12T08:37:10.456Z,64.29
2022-09-12T08:38:10.456Z,63.33
2022-09-12T08:39:10.434Z,64.29
2022-09-12T08:40:10.509Z,62.84
2022-09-12T08:41:10.422Z,62.36
2022-09-12T08:43:10.422Z,67.03
2022-09-12T08:44:10.400Z,65.90
2022-09-12T08:45:10.395Z,61.71
2022-09-12T08:46:10.451Z,63.16
2022-09-12T08:47:10.397Z,63.49
2022-09-12T08:48:10.372Z,64.13
2022-09-12T08:49:10.358Z,63.65
2022-09-12T08:50:10.371Z,62.04
2022-09-12T08:51:10.345Z,64.61
2022-09-12T08:52:10.363Z,64.45
2022-09-12T08:53:10.336Z,62.52
2022-09-12T08:54:10.325Z,59.30
2022-09-12T08:55:10.317Z,61.71
2022-09-12T08:56:10.303Z,61.87
2022-09-12T08:57:10.344Z,60.10
2022-09-12T08:58:10.284Z,63.16
2022-09-12T08:59:10.274Z,63.49
2022-09-12T09:00:10.276Z,61.23
2022-09-12T09:01:10.345Z,63.16
2022-09-12T09:02:10.315Z,62.52
2022-09-12T09:03:10.269Z,60.59
2022-09-12T09:04:10.245Z,59.46
2022-09-12T09:05:10.243Z,63.16
2022-09-12T09:06:10.224Z,63.00
2022-09-12T09:07:10.215Z,62.20
2022-09-12T09:08:10.217Z,61.87
2022-09-12T09:09:10.211Z,63.97
2022-09-12T09:10:10.194Z,62.68
2022-09-12T09:11:10.197Z,63.81
2022-09-12T09:12:10.172Z,63.16
2022-09-12T09:13:10.164Z,62.20
2022-09-12T09:14:10.183Z,63.16
2022-09-12T09:15:10.184Z,62.68
2022-09-12T09:16:10.197Z,62.36
2022-09-12T09:17:10.129Z,62.84
2022-09-12T09:18:10.120Z,60.75
2022-09-12T09:19:10.109Z,60.91
2022-09-12T09:20:10.107Z,59.94
2022-09-12T09:21:10.116Z,59.62
2022-09-12T09:22:10.081Z,63.97
2022-09-12T09:23:10.070Z,62.68
2022-09-12T09:24:10.082Z,60.75
2022-09-12T09:25:10.059Z,61.39
2022-09-12T09:26:10.061Z,63.00
2022-09-12T09:27:29.940Z,61.55
2022-09-12T09:28:11.052Z,62.84
2022-09-12T09:29:10.035Z,62.04
2022-09-12T09:30:10.025Z,61.39
2022-09-12T09:31:17.121Z,62.04
2022-09-12T09:32:10.005Z,60.26
2022-09-12T09:33:10.009Z,62.20
2022-09-12T09:34:09.986Z,63.33
2022-09-12T09:35:09.976Z,62.68
2022-09-12T09:36:09.971Z,63.49
2022-09-12T09:37:09.963Z,61.71
2022-09-12T09:38:09.955Z,63.81
2022-09-12T09:39:09.970Z,63.81
2022-09-12T09:40:09.972Z,61.87
2022-09-12T09:41:09.927Z,62.52
2022-09-12T09:42:09.921Z,60.26
2022-09-12T09:43:09.925Z,60.91
2022-09-12T09:44:09.912Z,62.20
2022-09-12T09:45:09.900Z,61.39
2022-09-12T09:46:09.963Z,61.87
2022-09-12T09:47:09.895Z,60.26
2022-09-12T09:48:09.869Z,59.62
2022-09-12T09:49:09.885Z,63.16
2022-09-12T09:50:09.859Z,61.07
2022-09-12T09:51:09.860Z,61.39
2022-09-12T09:52:09.871Z,61.87
2022-09-12T09:53:09.826Z,62.20
2022-09-12T09:54:09.835Z,63.81
2022-09-12T09:55:09.805Z,63.16
2022-09-12T09:56:09.823Z,61.23
2022-09-12T09:57:09.784Z,63.49
2022-09-12T09:58:09.797Z,61.55
2022-09-12T09:59:09.822Z,63.33
2022-09-12T10:00:09.785Z,61.55
2022-09-12T10:01:09.822Z,60.91
2022-09-12T10:02:09.818Z,60.75
2022-09-12T10:03:13.394Z,61.55
2022-09-12T10:04:09.744Z,62.84
2022-09-12T10:05:09.762Z,63.00
2022-09-12T10:06:09.751Z,61.39
2022-09-12T10:07:09.722Z,63.16
2022-09-12T10:08:09.714Z,61.87
2022-09-12T10:09:09.707Z,61.39
2022-09-12T10:10:09.718Z,63.00
2022-09-12T10:11:09.683Z,62.68
2022-09-12T10:12:09.689Z,60.59
2022-09-12T10:13:09.676Z,61.07
2022-09-12T10:14:09.677Z,60.42
2022-09-12T10:15:09.659Z,61.23
2022-09-12T10:16:09.802Z,60.59
2022-09-12T10:17:09.646Z,62.20
2022-09-12T10:18:09.647Z,63.00
2022-09-12T10:19:09.632Z,61.39
2022-09-12T10:20:20.935Z,61.23
2022-09-12T10:21:10.636Z,60.75
2022-09-12T10:22:09.633Z,60.91
2022-09-12T10:23:09.612Z,60.75
2022-09-12T10:24:09.604Z,60.10
2022-09-12T10:25:09.592Z,63.49
2022-09-12T10:26:09.592Z,63.49
2022-09-12T10:27:09.608Z,62.04
2022-09-12T10:28:09.569Z,60.91
2022-09-12T10:29:09.561Z,59.62
2022-09-12T10:30:09.554Z,60.59
2022-09-12T10:31:09.572Z,62.84
2022-09-12T10:32:09.535Z,61.55
2022-09-12T10:33:09.546Z,60.42
2022-09-12T10:34:09.526Z,62.04
2022-09-12T10:35:09.524Z,63.16
2022-09-12T10:36:09.511Z,61.55
2022-09-12T10:37:09.500Z,60.59
2022-09-12T10:38:09.499Z,61.87
2022-09-12T10:39:09.505Z,62.04
2022-09-12T10:40:09.577Z,62.52
2022-09-12T10:41:09.471Z,61.55
2022-09-12T10:42:09.457Z,61.07
2022-09-12T10:43:09.479Z,61.39
2022-09-12T10:44:09.475Z,60.10
2022-09-12T10:45:09.439Z,61.71
2022-09-12T10:46:09.487Z,61.71
2022-09-12T10:47:09.439Z,61.07
2022-09-12T10:48:09.418Z,62.84
2022-09-12T10:49:09.414Z,60.91
2022-09-12T10:50:09.445Z,59.94
2022-09-12T10:51:09.407Z,59.78
2022-09-12T10:52:09.424Z,63.65
2022-09-12T10:53:09.387Z,59.78
2022-09-12T10:54:09.382Z,60.75
2022-09-12T10:55:09.391Z,61.55
2022-09-12T10:56:09.361Z,61.71
2022-09-12T10:57:09.357Z,60.42
2022-09-12T10:58:09.348Z,61.23
2022-09-12T10:59:09.337Z,63.65
2022-09-12T11:00:09.354Z,62.84
2022-09-12T11:01:09.393Z,60.10
2022-09-12T11:02:09.394Z,61.23
2022-09-12T11:03:09.309Z,60.59
2022-09-12T11:04:09.304Z,60.91
2022-09-12T11:05:09.296Z,60.10
2022-09-12T11:06:09.303Z,63.00
2022-09-12T11:07:09.287Z,62.20
2022-09-12T11:08:09.278Z,60.91
2022-09-12T11:09:09.274Z,62.36
2022-09-12T11:10:09.262Z,60.59
2022-09-12T11:11:09.270Z,61.23
2022-09-12T11:12:09.254Z,60.59
2022-09-12T11:13:09.232Z,61.87
2022-09-12T11:14:09.227Z,59.78
2022-09-12T11:15:09.235Z,59.78
2022-09-12T11:16:09.275Z,61.07
2022-09-12T11:17:13.271Z,59.78
2022-09-12T11:18:09.207Z,59.30
2022-09-12T11:19:09.213Z,61.07
2022-09-12T11:20:09.202Z,62.52
2022-09-12T11:21:09.206Z,60.26
2022-09-12T11:22:09.197Z,60.10
2022-09-12T11:23:09.175Z,59.30
2022-09-12T11:24:09.178Z,59.94
2022-09-12T11:25:09.152Z,60.10
2022-09-12T11:26:09.155Z,59.46
2022-09-12T11:27:09.174Z,58.97
2022-09-12T11:28:09.159Z,60.10
2022-09-12T11:29:09.129Z,59.46
2022-09-12T11:30:09.143Z,60.59
2022-09-12T11:31:09.148Z,60.10
2022-09-12T11:32:09.108Z,59.94
2022-09-12T11:33:09.099Z,60.10
2022-09-12T11:34:09.121Z,59.78
2022-09-12T11:35:09.496Z,59.14
2022-09-12T11:36:09.074Z,59.62
2022-09-12T11:37:11.013Z,60.10
2022-09-12T11:38:09.059Z,60.91
2022-09-12T11:39:09.051Z,59.14
2022-09-12T11:40:09.100Z,57.85
2022-09-12T11:41:09.044Z,60.26
2022-09-12T11:42:09.028Z,60.26
2022-09-12T11:43:09.031Z,60.42
2022-09-12T11:44:09.026Z,60.26
2022-09-12T11:45:09.026Z,58.97
2022-09-12T11:46:09.043Z,59.62
2022-09-12T11:47:08.994Z,59.30
2022-09-12T11:48:08.989Z,59.78
2022-09-12T11:49:08.990Z,60.59
2022-09-12T11:50:09.014Z,61.87
2022-09-12T11:51:08.972Z,59.62
2022-09-12T11:52:08.966Z,60.10
2022-09-12T11:53:08.953Z,59.78
2022-09-12T11:54:08.961Z,61.39
2022-09-12T11:55:08.958Z,62.84
2022-09-12T11:56:08.940Z,61.23
2022-09-12T11:57:08.924Z,60.59
2022-09-12T11:58:08.920Z,59.78
2022-09-12T11:59:08.908Z,60.75
2022-09-12T12:00:08.941Z,62.68
2022-09-12T12:01:08.891Z,61.07
2022-09-12T12:02:08.944Z,63.00
2022-09-12T12:03:08.930Z,64.13
2022-09-12T12:04:08.883Z,60.26
2022-09-12T12:05:08.884Z,60.75
2022-09-12T12:06:08.885Z,60.59
2022-09-12T12:07:08.860Z,63.16
2022-09-12T12:08:08.850Z,63.16
2022-09-12T12:09:08.840Z,62.52
2022-09-12T12:10:08.865Z,64.29
2022-09-12T12:11:08.821Z,65.42
2022-09-12T12:12:08.819Z,63.49
2022-09-12T12:13:13.853Z,64.78
2022-09-12T12:14:09.812Z,64.29
2022-09-12T12:15:08.805Z,63.00
2022-09-12T12:16:08.841Z,67.35
2022-09-12T12:17:08.782Z,72.19
2022-09-12T12:18:08.785Z,62.04
2022-09-12T12:19:10.685Z,62.36
2022-09-12T12:20:08.929Z,62.68
2022-09-12T12:21:08.770Z,62.52
2022-09-12T12:22:08.765Z,61.39
2022-09-12T12:23:08.761Z,63.81
2022-09-12T12:24:08.740Z,63.97
2022-09-12T12:25:08.728Z,62.84
2022-09-12T12:26:08.728Z,64.29
2022-09-12T12:27:08.735Z,63.49
2022-09-12T12:28:08.726Z,68.96
2022-09-12T12:29:08.705Z,68.16
2022-09-12T12:30:08.722Z,67.03
2022-09-12T12:31:08.757Z,69.45
2022-09-12T12:32:08.702Z,60.42
2022-09-12T12:33:08.671Z,69.93
2022-09-12T12:34:08.696Z,67.03
2022-09-12T12:35:08.675Z,63.97
2022-09-12T12:36:08.645Z,62.52
2022-09-12T12:37:08.657Z,63.97
2022-09-12T12:38:08.633Z,62.36
2022-09-12T12:39:08.622Z,61.55
2022-09-12T12:40:08.733Z,60.10
2022-09-12T12:41:08.605Z,60.91
2022-09-12T12:42:08.622Z,63.49
2022-09-12T12:43:08.598Z,62.84
2022-09-12T12:44:08.602Z,61.39
2022-09-12T12:45:08.595Z,62.68
2022-09-12T12:46:08.619Z,63.00
2022-09-12T12:47:08.567Z,61.23
2022-09-12T12:48:08.564Z,62.52
2022-09-12T12:49:08.591Z,64.78
2022-09-12T12:50:08.588Z,62.68
2022-09-12T12:51:08.542Z,63.00
2022-09-12T12:52:08.535Z,61.55
2022-09-12T12:53:08.529Z,62.84